Accueil
METAR-TAF:

METAR-TAF

Aéroports :

Aéroport de Milan-Linate

Milan, Italie

latitude: 45-26N, longitude: 009-17E, altitude: 107 m

Observation

Le bulletin a été fait il y a 26 minutes, à 06:50 UTC
Vent 3 kt de ouest/sud-ouest
Température -2°C
Humidité 100%
Pression 1030 hPa
Visibilité: 1500 m
Nuages épars à une hauteur de 1000 ft
brume

METAR: LIML 240650Z 25003KT 1500 BR SCT010 M02/M02 Q1030 NOSIG

Heure: 08:16 (07:16 UTC)

Prévision

Le bulletin a été fait il y a 2 heures et 16 minutes, à 05:00 UTC
Prévision valable du 24 à 06 UTC au 25 à 06 UTC
Vent 5 kt de direction variable
Visibilité: 0500 m
brouillard givrant
Temporairement
du 24 à 09 UTC au 24 à 11 UTC
Visibilité: 4000 m
brume
Evoluant progressivement
du 24 à 19 UTC au 24 à 21 UTC
Visibilité: 0500 m
brouillard givrant

TAF: LIML 240500Z 2406/2506 VRB05KT 0500 FZFG NSC TEMPO 2409/2411 4000 BR BECMG 2419/2421 0500 FZFG

Observations et prévisions météorologiques de plus de 4000 aéroports (messages METAR et TAF).

Les stations disponibles sont représentées par des disques jaunes et rouges sur la carte.

Passer la souris dessus pour voir le nom de la station.

Cliquer dessus pour voir les observations et prévisions météorologiques.

Pour changer de carte: cliquez sur les boutons verts avec une croix noire pour zoomer, sur le bouton vert avec un tiret pour effectuer un zoom arrière, ou sur les flèches vertes pour les cartes adjacentes.


METAR-TAF: